Time;durP1;ratioP1;P1;durP2;ratioP2;P2;SDS_P1;SDS_P2;PMS_P1;PMS_P2;Temp;Humidity;BMP_temperature;BMP_pressure;BME280_temperature;BME280_humidity;BME280_pressure;Samples;Min_cycle;Max_cycle;Signal;HPM_P1;HPM_P2
2022/11/30 00:01:42;;;;;;;4.20;3.90;;;;;;;7.31;100.00;-8178.75;5091784;28;20211;-61
2022/11/30 00:04:09;;;;;;;3.70;3.50;;;;;;;7.33;100.00;-8178.94;5091729;28;20273;-62
2022/11/30 00:06:36;;;;;;;4.10;3.90;;;;;;;7.40;100.00;-7862.34;5091844;28;20220;-61
2022/11/30 00:09:03;;;;;;;4.03;3.83;;;;;;;7.28;100.00;-7544.38;5091945;28;20184;-62
2022/11/30 00:11:30;;;;;;;4.63;4.23;;;;;;;7.26;100.00;-7544.25;5091591;28;20283;-61
2022/11/30 00:13:57;;;;;;;4.80;4.60;;;;;;;7.32;100.00;-7861.81;5091462;28;20294;-61
2022/11/30 00:16:24;;;;;;;4.97;4.77;;;;;;;7.39;100.00;-7228.00;5091911;28;20195;-61
2022/11/30 00:18:52;;;;;;;5.00;4.80;;;;;;;7.49;100.00;-6911.44;5091438;28;20199;-61
2022/11/30 00:21:19;;;;;;;5.40;5.10;;;;;;;7.49;100.00;-5642.09;5091867;28;20643;-61
2022/11/30 00:23:47;;;;;;;5.43;5.23;;;;;;;7.43;100.00;-5007.06;5091527;28;20267;-62
2022/11/30 00:26:17;;;;;;;5.50;5.20;;;;;;;7.26;100.00;-4371.84;5091818;28;20188;-61
2022/11/30 00:28:44;;;;;;;5.70;5.30;;;;;;;7.27;100.00;-5006.59;5091638;28;20208;-61
2022/11/30 00:31:13;;;;;;;5.70;5.20;;;;;;;7.06;100.00;-5005.94;5091415;28;20235;-61
2022/11/30 00:33:40;;;;;;;5.80;5.50;;;;;;;6.87;100.00;-6273.66;5091439;28;20224;-61
2022/11/30 00:36:12;;;;;;;5.80;5.40;;;;;;;6.95;100.00;-6591.09;5091719;28;20311;-60
2022/11/30 00:38:39;;;;;;;6.13;5.83;;;;;;;6.85;100.00;-7541.34;5091601;28;20636;-61
2022/11/30 00:41:07;;;;;;;6.30;6.00;;;;;;;6.73;100.00;-7857.22;5091673;28;20620;-61
2022/11/30 00:43:34;;;;;;;6.43;6.13;;;;;;;6.84;100.00;-7858.13;5091384;28;20223;-61
2022/11/30 00:46:01;;;;;;;6.00;5.70;;;;;;;6.91;100.00;-8175.50;5091273;28;20223;-61
2022/11/30 00:48:28;;;;;;;6.10;5.73;;;;;;;6.89;100.00;-7541.63;5091432;28;20212;-61
2022/11/30 00:50:55;;;;;;;7.13;6.83;;;;;;;6.83;100.00;-7224.31;5091963;28;20185;-60
2022/11/30 00:53:23;;;;;;;6.20;5.90;;;;;;;6.92;100.00;-7224.88;5095294;28;20238;-62
2022/11/30 00:55:50;;;;;;;6.30;5.90;;;;;;;6.74;100.00;-6906.84;5095261;28;20262;-61
2022/11/30 00:58:18;;;;;;;6.67;6.17;;;;;;;6.82;100.00;-7224.25;5095360;28;20635;-61
2022/11/30 01:00:46;;;;;;;5.70;5.40;;;;;;;6.80;100.00;-7540.97;5095547;28;20265;-61
2022/11/30 01:03:13;;;;;;;5.77;5.30;;;;;;;6.82;100.00;-7541.13;5094927;28;20219;-62
2022/11/30 01:05:42;;;;;;;5.40;5.20;;;;;;;6.86;100.00;-7224.50;5095493;28;20643;-60
2022/11/30 01:08:11;;;;;;;5.57;5.27;;;;;;;6.93;100.00;-7541.84;5094852;28;20333;-61
2022/11/30 01:10:41;;;;;;;5.27;4.97;;;;;;;7.03;100.00;-7225.59;5094986;28;20674;-61
2022/11/30 01:13:09;;;;;;;5.13;4.90;;;;;;;7.11;100.00;-6274.88;5094983;28;20601;-61
2022/11/30 01:15:37;;;;;;;5.50;5.20;;;;;;;7.06;100.00;-5640.38;5094737;28;20300;-61
2022/11/30 01:18:04;;;;;;;4.87;4.67;;;;;;;7.09;100.00;-5640.47;5094707;28;20187;-61
2022/11/30 01:20:32;;;;;;;4.73;4.53;;;;;;;6.94;100.00;-5322.75;5094648;28;20234;-60
2022/11/30 01:22:59;;;;;;;5.00;4.80;;;;;;;7.08;100.00;-6274.72;5094584;28;20206;-61
2022/11/30 01:25:26;;;;;;;4.53;4.33;;;;;;;7.01;100.00;-6274.34;5094830;28;20187;-61
2022/11/30 01:27:54;;;;;;;5.17;4.97;;;;;;;6.99;100.00;-6591.31;5094897;28;20615;-61
2022/11/30 01:30:21;;;;;;;5.23;5.03;;;;;;;7.02;100.00;-6908.50;5094408;28;20234;-61
2022/11/30 01:32:48;;;;;;;4.80;4.60;;;;;;;7.01;100.00;-6908.47;5094245;28;20271;-62
2022/11/30 01:35:16;;;;;;;4.77;4.47;;;;;;;7.03;100.00;-6908.59;5094501;28;20262;-61
2022/11/30 01:37:43;;;;;;;5.10;4.90;;;;;;;6.95;100.00;-7225.09;5094684;28;20607;-61
2022/11/30 01:40:11;;;;;;;4.47;4.27;;;;;;;6.91;100.00;-7224.78;5094125;28;20195;-61
2022/11/30 01:42:38;;;;;;;4.13;3.93;;;;;;;6.78;100.00;-7223.97;5094955;28;20220;-61
2022/11/30 01:45:13;;;;;;;4.37;4.17;;;;;;;6.84;100.00;-8174.97;5094298;28;20643;-61
2022/11/30 01:47:42;;;;;;;4.07;3.87;;;;;;;6.67;100.00;-7223.19;5094279;28;20233;-61
2022/11/30 01:50:14;;;;;;;4.27;4.07;;;;;;;6.77;100.00;-8174.38;5093825;28;20259;-61
2022/11/30 01:52:44;;;;;;;4.37;4.17;;;;;;;6.77;100.00;-7540.72;5094139;28;20626;-62
2022/11/30 01:55:18;;;;;;;4.53;4.33;;;;;;;6.76;100.00;-7540.69;5094112;28;20643;-61
2022/11/30 01:57:49;;;;;;;3.70;3.40;;;;;;;6.63;100.00;-7222.97;5093822;28;20271;-61
2022/11/30 02:00:19;;;;;;;4.50;4.30;;;;;;;6.52;100.00;-7855.63;5094074;28;20216;-60
2022/11/30 02:02:53;;;;;;;4.10;3.90;;;;;;;6.67;100.00;-7223.22;5093008;28;20227;-61
2022/11/30 02:05:23;;;;;;;4.00;3.80;;;;;;;6.60;100.00;-7856.25;5094235;28;20287;-60
2022/11/30 02:07:50;;;;;;;4.40;4.00;;;;;;;6.58;100.00;-7856.06;5093657;28;20227;-63
2022/11/30 02:10:22;;;;;;;4.07;3.87;;;;;;;6.62;100.00;-7222.91;5093661;28;20275;-61
2022/11/30 02:13:18;;;;;;;4.33;4.13;;;;;;;6.40;100.00;-6588.00;5093622;28;20192;-62
2022/11/30 02:15:55;;;;;;;4.40;4.20;;;;;;;6.34;100.00;-6270.94;5093430;28;20257;-61
2022/11/30 02:18:31;;;;;;;4.40;4.20;;;;;;;6.50;100.00;-6905.34;5093433;28;20188;-61
2022/11/30 02:21:07;;;;;;;4.10;3.80;;;;;;;6.40;100.00;-6588.00;5093701;28;20707;-61
2022/11/30 02:24:08;;;;;;;3.80;3.60;;;;;;;6.52;100.00;-5955.03;5093651;28;20613;-62
2022/11/30 02:27:03;;;;;;;3.30;3.20;;;;;;;6.61;100.00;-5321.56;5093343;28;20226;-61
2022/11/30 02:29:38;;;;;;;4.43;4.07;;;;;;;6.62;100.00;-5004.59;5093194;28;20227;-61
2022/11/30 02:32:10;;;;;;;3.70;3.50;;;;;;;6.43;100.00;-4370.13;5093477;28;20703;-61
2022/11/30 02:34:38;;;;;;;3.80;3.60;;;;;;;6.42;100.00;-6588.09;5093268;28;20184;-60
2022/11/30 02:37:07;;;;;;;3.53;3.33;;;;;;;6.60;100.00;-5955.38;5093570;28;20220;-61
2022/11/30 02:39:34;;;;;;;2.97;2.87;;;;;;;6.27;100.00;-5003.50;5093667;28;20631;-61
2022/11/30 02:42:02;;;;;;;3.80;3.60;;;;;;;6.43;100.00;-6588.19;5093551;28;20217;-61
2022/11/30 02:44:31;;;;;;;3.87;3.60;;;;;;;6.61;100.00;-6272.34;5092929;28;20205;-61
2022/11/30 02:47:10;;;;;;;3.80;3.60;;;;;;;6.52;100.00;-6588.66;5092884;28;20217;-62
2022/11/30 02:49:45;;;;;;;3.77;3.57;;;;;;;6.51;100.00;-6271.81;5093364;28;20263;-61
2022/11/30 02:52:14;;;;;;;3.77;3.57;;;;;;;6.58;100.00;-6272.19;5092800;28;20237;-61
2022/11/30 02:54:41;;;;;;;3.80;3.60;;;;;;;6.42;100.00;-5954.56;5092727;28;20235;-60
2022/11/30 02:57:09;;;;;;;3.73;3.57;;;;;;;6.56;100.00;-6588.91;5092659;28;20184;-60
2022/11/30 02:59:38;;;;;;;4.30;4.10;;;;;;;6.61;100.00;-6589.16;5092911;28;20615;-61
2022/11/30 03:02:05;;;;;;;4.27;3.97;;;;;;;6.65;100.00;-6272.53;5092893;28;20622;-61
2022/11/30 03:04:32;;;;;;;3.47;3.37;;;;;;;6.61;100.00;-5955.44;5092844;28;20532;-65
2022/11/30 03:06:59;;;;;;;5.20;4.13;;;;;;;6.59;100.00;-5638.41;5092898;28;20266;-60
2022/11/30 03:09:26;;;;;;;4.60;4.40;;;;;;;6.64;100.00;-5955.56;5092456;28;20207;-61
2022/11/30 03:11:53;;;;;;;4.27;4.07;;;;;;;6.66;100.00;-5955.66;5092370;28;20219;-61
2022/11/30 03:14:20;;;;;;;5.00;4.60;;;;;;;6.66;100.00;-5955.66;5092076;28;20254;-63
2022/11/30 03:16:49;;;;;;;4.23;4.03;;;;;;;6.60;100.00;-5638.47;5092083;28;20204;-62
2022/11/30 03:19:16;;;;;;;3.97;3.87;;;;;;;6.56;100.00;-6905.69;5092550;28;20675;-61
2022/11/30 03:21:43;;;;;;;4.47;4.17;;;;;;;6.57;100.00;-6588.97;5092147;28;20191;-62
2022/11/30 03:24:10;;;;;;;4.23;4.03;;;;;;;6.60;100.00;-6272.28;5092172;28;20227;-61
2022/11/30 03:26:37;;;;;;;4.27;3.97;;;;;;;6.51;100.00;-5954.94;5092492;28;20216;-61
2022/11/30 03:29:04;;;;;;;4.30;4.10;;;;;;;6.54;100.00;-5955.09;5093056;28;20678;-60
2022/11/30 03:31:32;;;;;;;4.80;4.57;;;;;;;6.45;100.00;-6271.50;5092080;28;20192;-61
2022/11/30 03:34:00;;;;;;;3.87;3.67;;;;;;;6.55;100.00;-6272.03;5091992;28;20239;-61
2022/11/30 03:36:27;;;;;;;5.03;4.83;;;;;;;6.34;100.00;-5954.19;5092153;28;20293;-61
2022/11/30 03:38:54;;;;;;;4.70;4.40;;;;;;;6.43;100.00;-5954.59;5091970;28;20233;-61
2022/11/30 03:41:21;;;;;;;4.27;4.07;;;;;;;6.40;100.00;-5954.47;5091999;28;20639;-62
2022/11/30 03:43:49;;;;;;;4.90;4.70;;;;;;;6.21;100.00;-6586.91;5092608;28;20220;-60
2022/11/30 03:46:16;;;;;;;4.83;4.63;;;;;;;6.27;100.00;-6903.91;5091886;28;20192;-61
2022/11/30 03:48:43;;;;;;;4.73;4.53;;;;;;;6.32;100.00;-6270.81;5091861;28;20227;-61
2022/11/30 03:51:13;;;;;;;5.27;4.73;;;;;;;6.35;100.00;-6270.97;5091902;28;20283;-62
2022/11/30 03:53:40;;;;;;;4.27;4.07;;;;;;;6.18;100.00;-5636.75;5091834;28;20184;-61
2022/11/30 03:56:10;;;;;;;4.47;4.27;;;;;;;6.28;100.00;-5637.13;5091729;28;20200;-61
2022/11/30 03:58:37;;;;;;;4.47;4.27;;;;;;;6.30;100.00;-5954.00;5092149;28;20227;-60
2022/11/30 04:01:07;;;;;;;4.93;4.73;;;;;;;6.19;100.00;-6586.78;5091735;28;20215;-61
2022/11/30 04:03:35;;;;;;;5.37;5.00;;;;;;;6.30;100.00;-6270.75;5092519;28;20646;-62
2022/11/30 04:06:03;;;;;;;4.57;4.37;;;;;;;6.20;100.00;-5953.53;5091776;28;20277;-60
2022/11/30 04:08:31;;;;;;;5.27;4.70;;;;;;;6.13;100.00;-5636.50;5091909;28;20266;-61
2022/11/30 04:11:00;;;;;;;4.83;4.63;;;;;;;6.04;100.00;-5952.78;5092142;28;20659;-61
2022/11/30 04:13:28;;;;;;;4.77;4.57;;;;;;;5.99;100.00;-5952.56;5091953;28;20613;-60
2022/11/30 04:15:56;;;;;;;4.83;4.63;;;;;;;6.18;100.00;-5636.75;5092127;28;20295;-61
2022/11/30 04:18:25;;;;;;;4.73;4.53;;;;;;;6.13;100.00;-5636.53;5091763;28;20642;-61
2022/11/30 04:20:53;;;;;;;4.47;4.27;;;;;;;6.27;100.00;-5320.34;5091868;28;20231;-60
2022/11/30 04:23:20;;;;;;;5.33;4.10;;;;;;;6.28;100.00;-5320.34;5091726;28;20270;-61
2022/11/30 04:25:50;;;;;;;4.63;4.43;;;;;;;6.25;100.00;-5003.44;5091696;28;20270;-61
2022/11/30 04:28:18;;;;;;;4.63;4.43;;;;;;;6.32;100.00;-5637.31;5095812;28;20288;-61
2022/11/30 04:30:46;;;;;;;4.50;4.20;;;;;;;6.20;100.00;-5320.06;5095391;28;20180;-61
2022/11/30 04:33:14;;;;;;;5.10;4.90;;;;;;;6.08;100.00;-5319.63;5095265;28;20283;-62
2022/11/30 04:35:43;;;;;;;5.27;4.97;;;;;;;6.20;100.00;-5636.81;5095282;28;20204;-62
2022/11/30 04:38:10;;;;;;;4.60;4.40;;;;;;;6.23;100.00;-5320.16;5095255;28;20228;-62
2022/11/30 04:40:39;;;;;;;4.90;4.70;;;;;;;6.21;100.00;-5003.34;5095378;28;20271;-61
2022/11/30 04:43:09;;;;;;;5.37;4.60;;;;;;;6.10;100.00;-6269.69;5095452;28;20599;-62
2022/11/30 04:45:36;;;;;;;4.83;4.53;;;;;;;6.07;100.00;-6586.09;5095171;28;20219;-62
2022/11/30 04:48:05;;;;;;;5.43;4.70;;;;;;;6.19;100.00;-5953.50;5095127;28;20187;-61
2022/11/30 04:50:32;;;;;;;5.60;5.30;;;;;;;6.01;100.00;-5636.03;5095096;28;20328;-61
2022/11/30 04:52:59;;;;;;;7.50;5.07;;;;;;;6.08;100.00;-5319.63;5095332;28;20647;-61
2022/11/30 04:55:27;;;;;;;8.57;6.50;;;;;;;6.18;100.00;-5636.72;5094889;28;20261;-61
2022/11/30 04:57:54;;;;;;;5.10;4.90;;;;;;;6.08;100.00;-5636.31;5095434;28;20217;-60
2022/11/30 05:00:23;;;;;;;6.10;5.47;;;;;;;6.12;100.00;-5953.16;5095409;28;20625;-61
2022/11/30 05:02:50;;;;;;;5.80;5.40;;;;;;;6.14;100.00;-5636.56;5094789;28;20231;-61
2022/11/30 05:05:17;;;;;;;5.67;5.37;;;;;;;6.13;100.00;-5319.81;5094783;28;20184;-61
2022/11/30 05:07:44;;;;;;;6.17;5.87;;;;;;;6.16;100.00;-5636.63;5095011;28;20729;-61
2022/11/30 05:10:11;;;;;;;6.17;5.73;;;;;;;6.04;100.00;-5952.75;5094758;28;20227;-60
2022/11/30 05:12:38;;;;;;;5.93;5.63;;;;;;;6.03;100.00;-5002.78;5094788;28;20188;-62
2022/11/30 05:15:07;;;;;;;9.50;6.40;;;;;;;6.22;100.00;-5636.91;5094536;28;20548;-61
2022/11/30 05:17:35;;;;;;;11.07;6.23;;;;;;;6.27;100.00;-5320.34;5094391;28;20204;-61
2022/11/30 05:20:02;;;;;;;6.17;5.77;;;;;;;6.29;100.00;-5003.56;5094549;28;20234;-61
2022/11/30 05:22:29;;;;;;;6.07;5.57;;;;;;;6.32;100.00;-5320.53;5094818;28;20624;-61
2022/11/30 05:24:56;;;;;;;5.57;5.27;;;;;;;6.22;100.00;-5320.13;5094153;28;20188;-62
2022/11/30 05:27:23;;;;;;;6.10;5.53;;;;;;;5.96;100.00;-4369.16;5094489;28;20192;-61
2022/11/30 05:29:50;;;;;;;6.07;5.77;;;;;;;5.93;100.00;-6585.34;5093240;28;20677;-60
2022/11/30 05:32:17;;;;;;;6.97;6.37;;;;;;;6.04;100.00;-7219.00;5094344;28;20226;-62
2022/11/30 05:34:45;;;;;;;6.40;6.00;;;;;;;6.10;100.00;-6586.28;5094739;28;20621;-60
2022/11/30 05:37:13;;;;;;;7.60;6.67;;;;;;;6.22;100.00;-6586.97;5093789;28;20227;-61
2022/11/30 05:39:39;;;;;;;6.67;6.17;;;;;;;6.21;100.00;-5953.59;5093668;28;20280;-60
2022/11/30 05:42:06;;;;;;;6.23;5.93;;;;;;;6.12;100.00;-5319.78;5093946;28;20275;-61
2022/11/30 05:44:34;;;;;;;7.60;6.87;;;;;;;6.22;100.00;-5953.63;5094388;28;20188;-60
2022/11/30 05:47:01;;;;;;;7.00;6.50;;;;;;;6.28;100.00;-5637.13;5094224;28;20180;-61
2022/11/30 05:49:27;;;;;;;9.47;6.87;;;;;;;6.22;100.00;-5636.91;5093925;28;20642;-61
2022/11/30 05:51:56;;;;;;;7.13;6.83;;;;;;;6.11;100.00;-5636.44;5093956;28;20637;-61
2022/11/30 05:54:23;;;;;;;8.20;7.60;;;;;;;6.14;100.00;-6586.53;5094240;28;20719;-61
2022/11/30 05:56:50;;;;;;;6.93;6.53;;;;;;;6.19;100.00;-6586.81;5094108;28;20696;-60
2022/11/30 05:59:17;;;;;;;5.77;5.27;;;;;;;6.00;100.00;-5635.97;5094445;28;20612;-60
2022/11/30 06:01:44;;;;;;;9.67;8.17;;;;;;;6.14;100.00;-6903.09;5093903;28;20224;-61
2022/11/30 06:04:11;;;;;;;7.30;6.90;;;;;;;6.23;100.00;-6903.66;5093757;28;20220;-62
2022/11/30 06:06:38;;;;;;;8.07;7.67;;;;;;;6.17;100.00;-5953.38;5093798;28;20238;-61
2022/11/30 06:09:06;;;;;;;10.10;7.23;;;;;;;6.21;100.00;-6270.28;5093972;28;20215;-60
2022/11/30 06:11:34;;;;;;;8.00;7.10;;;;;;;6.14;100.00;-6269.91;5093784;28;20188;-60
2022/11/30 06:14:00;;;;;;;7.27;6.80;;;;;;;5.91;100.00;-6901.69;5093747;28;20184;-61
2022/11/30 06:16:28;;;;;;;7.20;6.90;;;;;;;6.06;100.00;-7535.59;5093753;28;20236;-61
2022/11/30 06:18:54;;;;;;;7.50;7.00;;;;;;;6.09;100.00;-6586.22;5093570;28;20694;-61
2022/11/30 06:21:21;;;;;;;9.13;8.23;;;;;;;6.14;100.00;-6269.88;5093688;28;20242;-61
2022/11/30 06:23:48;;;;;;;8.43;7.90;;;;;;;6.22;100.00;-5953.63;5093259;28;20228;-61
2022/11/30 06:26:17;;;;;;;10.53;8.20;;;;;;;6.27;100.00;-5320.31;5093539;28;20249;-62
2022/11/30 06:28:44;;;;;;;7.67;7.20;;;;;;;6.22;100.00;-5636.91;5093467;28;20650;-62
2022/11/30 06:31:11;;;;;;;7.63;7.03;;;;;;;6.22;100.00;-4369.69;5093136;28;20184;-62
2022/11/30 06:33:38;;;;;;;8.10;7.60;;;;;;;6.12;100.00;-5319.78;5093423;28;20234;-61
2022/11/30 06:36:06;;;;;;;7.80;7.40;;;;;;;6.20;100.00;-5953.50;5092944;28;20295;-62
2022/11/30 06:38:33;;;;;;;7.67;6.97;;;;;;;5.98;100.00;-5952.50;5091989;28;20559;-62
2022/11/30 06:41:05;;;;;;;8.30;7.37;;;;;;;6.19;100.00;-6586.81;5093126;28;20623;-61
2022/11/30 06:43:38;;;;;;;8.73;8.03;;;;;;;6.30;100.00;-6904.09;5092814;28;20566;-62
2022/11/30 06:46:07;;;;;;;19.00;9.60;;;;;;;6.36;100.00;-7537.78;5092761;28;20180;-62
2022/11/30 06:48:34;;;;;;;8.63;7.83;;;;;;;6.43;100.00;-6904.94;5093012;28;20192;-61
2022/11/30 06:51:01;;;;;;;9.13;8.23;;;;;;;6.44;100.00;-6588.22;5091875;28;20187;-61
2022/11/30 06:53:28;;;;;;;10.00;8.53;;;;;;;6.46;100.00;-6905.06;5093214;28;20310;-63
2022/11/30 06:55:55;;;;;;;9.03;8.27;;;;;;;6.37;100.00;-6587.81;5092937;28;20651;-62
2022/11/30 06:58:23;;;;;;;9.43;8.63;;;;;;;6.31;100.00;-6270.78;5092915;28;20195;-61
2022/11/30 07:00:52;;;;;;;10.83;8.37;;;;;;;6.13;100.00;-6269.84;5092806;28;20266;-61
2022/11/30 07:03:19;;;;;;;9.53;8.93;;;;;;;6.32;100.00;-6587.56;5092335;28;20275;-61
2022/11/30 07:05:46;;;;;;;11.43;9.07;;;;;;;6.35;100.00;-7537.72;5091042;28;20215;-61
2022/11/30 07:08:15;;;;;;;9.97;8.63;;;;;;;6.18;100.00;-6903.34;5092583;28;20188;-62
2022/11/30 07:10:42;;;;;;;9.90;8.33;;;;;;;6.09;100.00;-7535.81;5092363;28;20299;-63
2022/11/30 07:13:14;;;;;;;8.30;7.80;;;;;;;6.20;100.00;-7853.16;5090857;28;20582;-61
2022/11/30 07:15:42;;;;;;;9.20;8.33;;;;;;;6.18;100.00;-7219.97;5092538;28;20589;-62
2022/11/30 07:18:11;;;;;;;9.40;8.10;;;;;;;6.23;100.00;-6903.66;5092198;28;20291;-61
2022/11/30 07:20:38;;;;;;;9.37;8.37;;;;;;;6.18;100.00;-6586.75;5092429;28;20218;-61
2022/11/30 07:28:30;;;;;;;8.30;7.80;;;;;;;6.32;100.00;-6587.56;5087770;28;20196;-61
2022/11/30 07:30:57;;;;;;;8.33;7.83;;;;;;;6.38;100.00;-6587.91;5092328;28;20180;-61
2022/11/30 07:33:26;;;;;;;9.23;8.53;;;;;;;6.46;100.00;-5954.72;5091957;28;20216;-61
2022/11/30 07:35:55;;;;;;;12.47;9.10;;;;;;;6.45;100.00;-6271.50;5091282;28;20594;-62
2022/11/30 07:38:24;;;;;;;9.23;8.50;;;;;;;6.45;100.00;-6905.03;5091773;28;20194;-61
2022/11/30 07:40:51;;;;;;;8.67;7.97;;;;;;;6.47;100.00;-6905.13;5090872;28;20655;-62
2022/11/30 07:43:18;;;;;;;8.67;7.63;;;;;;;6.54;100.00;-6271.94;5092318;28;20636;-61
2022/11/30 07:45:52;;;;;;;7.80;7.30;;;;;;;6.34;100.00;-5320.59;5091728;28;20192;-61
2022/11/30 07:48:19;;;;;;;7.83;7.43;;;;;;;6.35;100.00;-5637.44;5091656;28;20220;-61
2022/11/30 07:50:48;;;;;;;8.13;7.63;;;;;;;6.44;100.00;-6904.97;5091416;28;20315;-61
2022/11/30 07:53:15;;;;;;;7.53;7.10;;;;;;;6.34;100.00;-7221.03;5091235;28;20188;-62
2022/11/30 07:55:43;;;;;;;7.17;6.67;;;;;;;6.40;100.00;-7221.44;5091881;28;20302;-62
2022/11/30 07:58:10;;;;;;;6.60;6.30;;;;;;;6.44;100.00;-6588.22;5092248;28;20274;-61
2022/11/30 08:00:38;;;;;;;7.57;7.20;;;;;;;6.41;100.00;-6588.06;5090902;28;20665;-58
2022/11/30 08:03:05;;;;;;;10.27;9.50;;;;;;;6.39;100.00;-6904.66;5091456;28;20188;-62
2022/11/30 08:05:32;;;;;;;125.90;72.67;;;;;;;6.36;100.00;-7221.13;5091641;28;20617;-61
2022/11/30 08:08:00;;;;;;;7.00;6.60;;;;;;;6.38;100.00;-7221.28;5091471;28;20203;-61
2022/11/30 08:10:27;;;;;;;7.07;6.77;;;;;;;6.31;100.00;-7220.81;5091616;28;20187;-62
2022/11/30 08:12:56;;;;;;;6.73;6.43;;;;;;;5.91;100.00;-7218.13;5092113;28;20230;-63
2022/11/30 08:15:23;;;;;;;6.60;6.20;;;;;;;5.96;100.00;-7534.94;5091000;28;20188;-62
2022/11/30 08:17:53;;;;;;;8.00;7.60;;;;;;;6.04;100.00;-7851.91;5090825;28;20282;-62
2022/11/30 08:20:21;;;;;;;7.70;7.10;;;;;;;6.16;100.00;-7852.88;5087890;28;20275;-61
2022/11/30 08:22:48;;;;;;;7.40;7.10;;;;;;;6.18;100.00;-6903.34;5091664;28;20647;-62
2022/11/30 08:25:17;;;;;;;6.20;5.70;;;;;;;6.15;100.00;-6586.59;5091582;28;20238;-62
2022/11/30 08:27:44;;;;;;;8.07;7.43;;;;;;;6.22;100.00;-6270.31;5091486;28;20219;-61
2022/11/30 08:30:11;;;;;;;6.27;6.03;;;;;;;6.20;100.00;-5636.81;5091587;28;20683;-63
2022/11/30 08:32:38;;;;;;;6.17;5.87;;;;;;;6.25;100.00;-5953.78;5091849;28;20188;-61
2022/11/30 08:35:06;;;;;;;7.00;6.70;;;;;;;6.26;100.00;-6270.53;5091992;28;20587;-61
2022/11/30 08:37:36;;;;;;;6.90;6.50;;;;;;;6.17;100.00;-5953.38;5091212;28;20257;-62
2022/11/30 08:40:04;;;;;;;7.17;6.77;;;;;;;6.09;100.00;-6586.22;5091086;28;20181;-62
2022/11/30 08:42:32;;;;;;;6.17;5.77;;;;;;;6.21;100.00;-6903.56;5091399;28;20241;-63
2022/11/30 08:44:59;;;;;;;7.17;6.77;;;;;;;5.85;100.00;-6901.34;5090725;28;20188;-62
2022/11/30 08:47:26;;;;;;;6.73;6.23;;;;;;;6.16;100.00;-6270.00;5091337;28;20673;-61
2022/11/30 08:49:53;;;;;;;6.57;6.07;;;;;;;6.14;100.00;-6269.91;5091234;28;20231;-61
2022/11/30 08:52:20;;;;;;;6.70;5.93;;;;;;;6.09;100.00;-5319.66;5091298;28;20612;-61
2022/11/30 08:54:47;;;;;;;6.10;5.80;;;;;;;6.15;100.00;-5319.91;5091705;28;20585;-62
2022/11/30 08:57:16;;;;;;;5.77;5.37;;;;;;;6.08;100.00;-5319.63;5090987;28;20238;-61
2022/11/30 08:59:44;;;;;;;6.97;6.23;;;;;;;6.12;100.00;-5319.78;5091386;28;20195;-62
2022/11/30 09:02:15;;;;;;;5.90;5.60;;;;;;;6.17;100.00;-5636.69;5091356;28;20181;-62
2022/11/30 09:04:42;;;;;;;5.97;5.67;;;;;;;6.23;100.00;-5636.94;5091385;28;20245;-62
2022/11/30 09:07:10;;;;;;;6.10;5.80;;;;;;;6.14;100.00;-6269.88;5091402;28;20176;-62
2022/11/30 09:09:37;;;;;;;7.20;6.80;;;;;;;6.14;100.00;-6269.91;5091248;28;20226;-62
2022/11/30 09:12:04;;;;;;;5.97;5.67;;;;;;;6.17;100.00;-6903.31;5090712;28;20198;-62
2022/11/30 09:14:31;;;;;;;5.60;5.30;;;;;;;6.05;100.00;-6902.53;5093746;28;20220;-61
2022/11/30 09:17:00;;;;;;;5.97;5.63;;;;;;;6.05;100.00;-6586.03;5094629;28;20224;-61
2022/11/30 09:19:27;;;;;;;5.77;5.47;;;;;;;5.83;100.00;-7217.59;5094716;28;20188;-64
2022/11/30 09:21:54;;;;;;;6.10;5.80;;;;;;;5.83;100.00;-6901.19;5094765;28;20624;-62
2022/11/30 09:24:21;;;;;;;5.83;5.63;;;;;;;5.86;100.00;-6901.41;5094799;28;20224;-62
2022/11/30 09:26:48;;;;;;;5.87;5.57;;;;;;;5.83;100.00;-5951.81;5094287;28;20191;-62
2022/11/30 09:29:15;;;;;;;6.13;5.80;;;;;;;5.86;100.00;-5635.41;5092904;28;20192;-62
2022/11/30 09:31:42;;;;;;;5.53;5.23;;;;;;;5.90;100.00;-5318.97;5094767;28;20246;-62
2022/11/30 09:34:12;;;;;;;5.63;5.33;;;;;;;5.68;100.00;-5001.69;5094255;28;20200;-62
2022/11/30 09:36:39;;;;;;;6.00;5.70;;;;;;;5.91;100.00;-5635.63;5094272;28;20279;-62
2022/11/30 09:39:06;;;;;;;6.40;6.10;;;;;;;5.90;100.00;-5635.56;5094564;28;20214;-62
2022/11/30 09:42:11;;;;;;;5.83;5.50;;;;;;;5.87;100.00;-5635.47;5094188;28;20642;-62
2022/11/30 09:44:49;;;;;;;5.80;5.50;;;;;;;5.91;100.00;-6268.72;5073407;28;20196;-61
2022/11/30 09:47:32;;;;;;;5.43;5.23;;;;;;;5.78;100.00;-5635.09;5094279;28;20206;-62
2022/11/30 09:50:04;;;;;;;5.50;5.17;;;;;;;5.68;100.00;-5001.66;5093825;28;20281;-63
2022/11/30 09:52:37;;;;;;;6.13;5.70;;;;;;;5.56;100.00;-5317.72;5093600;28;20188;-62
2022/11/30 09:55:09;;;;;;;6.13;5.83;;;;;;;5.62;100.00;-6267.22;5093987;28;20204;-62
2022/11/30 09:57:45;;;;;;;4.83;4.63;;;;;;;5.64;100.00;-5318.03;5093860;28;20253;-62
2022/11/30 10:00:17;;;;;;;5.90;5.60;;;;;;;5.60;100.00;-4684.94;5093666;28;20190;-63
2022/11/30 10:02:45;;;;;;;5.50;5.30;;;;;;;5.58;100.00;-5317.81;5094048;28;20195;-63
2022/11/30 10:05:15;;;;;;;5.67;5.37;;;;;;;5.74;100.00;-6900.63;5093857;28;20241;-61
2022/11/30 10:07:59;;;;;;;4.53;4.23;;;;;;;5.69;100.00;-4368.59;5093481;28;20188;-61
2022/11/30 10:10:38;;;;;;;4.47;4.27;;;;;;;5.72;100.00;-4368.66;5093335;28;20184;-60
2022/11/30 10:13:19;;;;;;;4.70;4.50;;;;;;;5.60;100.00;-3101.97;5093752;28;20212;-61
2022/11/30 10:15:57;;;;;;;5.03;4.73;;;;;;;5.71;100.00;-4052.00;5093973;28;20215;-63
2022/11/30 10:18:33;;;;;;;5.87;5.47;;;;;;;5.73;100.00;-4685.28;5093351;28;20235;-62
2022/11/30 10:21:13;;;;;;;4.47;4.27;;;;;;;5.91;100.00;-5635.63;5093556;28;20188;-63
2022/11/30 10:23:58;;;;;;;7.90;7.50;;;;;;;5.87;100.00;-4685.66;5092724;28;20241;-62
2022/11/30 10:26:32;;;;;;;4.97;4.77;;;;;;;6.01;100.00;-4369.25;5093612;28;20613;-61
2022/11/30 10:29:06;;;;;;;4.37;4.17;;;;;;;6.08;100.00;-4369.41;5093182;28;20579;-61
2022/11/30 10:31:35;;;;;;;5.20;5.00;;;;;;;5.91;100.00;-4685.75;5093271;28;20223;-61
2022/11/30 10:34:17;;;;;;;5.23;4.93;;;;;;;6.16;100.00;-5636.63;5093756;28;20206;-61
2022/11/30 10:36:52;;;;;;;4.63;4.43;;;;;;;6.28;100.00;-5320.38;5093090;28;20576;-61
2022/11/30 10:39:24;;;;;;;5.03;4.63;;;;;;;6.15;100.00;-4686.34;5093203;28;20191;-62
2022/11/30 10:41:56;;;;;;;5.93;5.53;;;;;;;6.32;100.00;-5637.31;5092750;28;20219;-63
2022/11/30 10:44:30;;;;;;;4.83;4.63;;;;;;;6.36;100.00;-6271.06;5093737;28;20559;-62
2022/11/30 10:47:00;;;;;;;5.07;4.87;;;;;;;6.35;100.00;-5954.22;5092699;28;20184;-61
2022/11/30 10:49:29;;;;;;;5.30;5.10;;;;;;;6.11;100.00;-5319.72;5092504;28;20300;-60
2022/11/30 10:52:03;;;;;;;5.90;5.57;;;;;;;5.99;100.00;-6269.13;5092761;28;20234;-62
2022/11/30 10:54:31;;;;;;;5.90;5.60;;;;;;;6.14;100.00;-6903.13;5093101;28;20203;-62
2022/11/30 10:57:01;;;;;;;6.07;5.57;;;;;;;6.18;100.00;-7219.97;5092801;28;20283;-61
2022/11/30 10:59:38;;;;;;;6.57;5.97;;;;;;;6.19;100.00;-6270.16;5092660;28;20227;-61
2022/11/30 11:02:36;;;;;;;5.87;5.67;;;;;;;6.12;100.00;-6586.38;5092589;28;20611;-62
2022/11/30 11:05:25;;;;;;;5.63;5.40;;;;;;;6.22;100.00;-7220.22;5092325;28;20201;-64
2022/11/30 11:07:58;;;;;;;5.63;5.33;;;;;;;6.27;100.00;-7220.53;5087874;28;20192;-60
2022/11/30 11:10:33;;;;;;;6.27;5.97;;;;;;;6.34;100.00;-6904.38;5092288;28;20241;-61
2022/11/30 11:13:00;;;;;;;6.17;5.87;;;;;;;6.47;100.00;-5954.75;5092192;28;20221;-61
2022/11/30 11:15:29;;;;;;;6.77;6.37;;;;;;;6.40;100.00;-6588.03;5092094;28;20233;-61
2022/11/30 11:18:29;;;;;;;6.70;6.40;;;;;;;6.57;100.00;-5004.44;5091967;28;20222;-61
2022/11/30 11:21:03;;;;;;;6.87;6.57;;;;;;;6.66;100.00;-5004.72;5092000;28;20199;-61
2022/11/30 11:23:34;;;;;;;6.40;6.10;;;;;;;6.60;100.00;-4370.47;5092243;28;20274;-65
2022/11/30 11:26:01;;;;;;;7.10;6.43;;;;;;;6.60;100.00;-3736.31;5092169;28;20195;-61
2022/11/30 11:28:29;;;;;;;6.10;5.80;;;;;;;6.52;100.00;-3736.22;5092194;28;20340;-62
2022/11/30 11:30:58;;;;;;;6.70;6.40;;;;;;;6.64;100.00;-4370.56;5090755;28;20188;-61
2022/11/30 11:33:27;;;;;;;7.30;6.90;;;;;;;6.55;100.00;-5321.34;5092287;28;20531;-62
2022/11/30 11:35:56;;;;;;;5.67;5.37;;;;;;;6.38;100.00;-4370.03;5091135;28;20261;-61
2022/11/30 11:38:27;;;;;;;6.20;5.90;;;;;;;6.38;100.00;-5003.84;5092177;28;20257;-61
2022/11/30 11:41:04;;;;;;;6.43;6.13;;;;;;;6.26;100.00;-5003.47;5091883;28;20180;-63
2022/11/30 11:43:34;;;;;;;5.60;5.30;;;;;;;6.00;100.00;-6269.16;5091855;28;20184;-61
2022/11/30 11:46:10;;;;;;;6.53;6.23;;;;;;;6.12;100.00;-8168.97;5092031;28;20183;-61
2022/11/30 11:48:40;;;;;;;7.80;7.40;;;;;;;5.98;100.00;-8167.84;5091755;28;20591;-61
2022/11/30 11:51:12;;;;;;;8.37;7.97;;;;;;;5.85;100.00;-8483.06;5091590;28;20191;-62